sensor_id;sensor_type;location;lat;lon;timestamp;temperature;humidity
27114;DHT22;14648;49.730;8.614;2022-11-15T00:01:54;14.60;56.40
27114;DHT22;14648;49.730;8.614;2022-11-15T00:04:20;14.60;56.30
27114;DHT22;14648;49.730;8.614;2022-11-15T00:06:45;14.60;56.30
27114;DHT22;14648;49.730;8.614;2022-11-15T00:09:11;14.60;56.20
27114;DHT22;14648;49.730;8.614;2022-11-15T00:11:36;14.60;56.30
27114;DHT22;14648;49.730;8.614;2022-11-15T00:14:02;14.60;56.20
27114;DHT22;14648;49.730;8.614;2022-11-15T00:16:28;14.60;56.20
27114;DHT22;14648;49.730;8.614;2022-11-15T00:18:54;14.60;56.10
27114;DHT22;14648;49.730;8.614;2022-11-15T00:21:19;14.60;56.10
27114;DHT22;14648;49.730;8.614;2022-11-15T00:23:45;14.50;56.20
27114;DHT22;14648;49.730;8.614;2022-11-15T00:26:13;14.60;56.10
27114;DHT22;14648;49.730;8.614;2022-11-15T00:28:40;14.60;56.10
27114;DHT22;14648;49.730;8.614;2022-11-15T00:31:10;14.50;56.20
27114;DHT22;14648;49.730;8.614;2022-11-15T00:33:38;14.50;56.10
27114;DHT22;14648;49.730;8.614;2022-11-15T00:36:06;14.50;56.10
27114;DHT22;14648;49.730;8.614;2022-11-15T00:38:35;14.50;56.00
27114;DHT22;14648;49.730;8.614;2022-11-15T00:41:04;14.60;56.00
27114;DHT22;14648;49.730;8.614;2022-11-15T00:43:30;14.50;56.00
27114;DHT22;14648;49.730;8.614;2022-11-15T00:45:56;14.50;56.00
27114;DHT22;14648;49.730;8.614;2022-11-15T00:48:22;14.50;56.00
27114;DHT22;14648;49.730;8.614;2022-11-15T00:50:48;14.50;56.10
27114;DHT22;14648;49.730;8.614;2022-11-15T00:53:14;14.50;56.20
27114;DHT22;14648;49.730;8.614;2022-11-15T00:55:41;14.50;56.10
27114;DHT22;14648;49.730;8.614;2022-11-15T00:58:06;14.50;56.10
27114;DHT22;14648;49.730;8.614;2022-11-15T01:00:32;14.50;56.10
27114;DHT22;14648;49.730;8.614;2022-11-15T01:03:00;14.60;56.00
27114;DHT22;14648;49.730;8.614;2022-11-15T01:05:26;14.60;56.10
27114;DHT22;14648;49.730;8.614;2022-11-15T01:07:55;14.60;56.10
27114;DHT22;14648;49.730;8.614;2022-11-15T01:10:23;14.50;56.20
27114;DHT22;14648;49.730;8.614;2022-11-15T01:12:49;14.50;56.20
27114;DHT22;14648;49.730;8.614;2022-11-15T01:15:15;14.50;56.30
27114;DHT22;14648;49.730;8.614;2022-11-15T01:17:40;14.50;56.40
27114;DHT22;14648;49.730;8.614;2022-11-15T01:20:07;14.50;56.50
27114;DHT22;14648;49.730;8.614;2022-11-15T01:22:33;14.50;56.50
27114;DHT22;14648;49.730;8.614;2022-11-15T01:24:58;14.50;56.60
27114;DHT22;14648;49.730;8.614;2022-11-15T01:27:24;14.50;56.70
27114;DHT22;14648;49.730;8.614;2022-11-15T01:29:50;14.40;56.60
27114;DHT22;14648;49.730;8.614;2022-11-15T01:32:16;14.50;56.90
27114;DHT22;14648;49.730;8.614;2022-11-15T01:34:42;14.40;56.80
27114;DHT22;14648;49.730;8.614;2022-11-15T01:37:08;14.50;56.90
27114;DHT22;14648;49.730;8.614;2022-11-15T01:39:33;14.50;57.00
27114;DHT22;14648;49.730;8.614;2022-11-15T01:41:59;14.50;57.00
27114;DHT22;14648;49.730;8.614;2022-11-15T01:47:06;14.50;57.20
27114;DHT22;14648;49.730;8.614;2022-11-15T01:49:35;14.60;57.30
27114;DHT22;14648;49.730;8.614;2022-11-15T01:52:06;14.60;57.30
27114;DHT22;14648;49.730;8.614;2022-11-15T01:54:33;14.60;57.30
27114;DHT22;14648;49.730;8.614;2022-11-15T01:57:02;14.70;57.40
27114;DHT22;14648;49.730;8.614;2022-11-15T01:59:37;14.70;57.30
27114;DHT22;14648;49.730;8.614;2022-11-15T02:02:04;14.80;57.30
27114;DHT22;14648;49.730;8.614;2022-11-15T02:04:37;14.80;57.20
27114;DHT22;14648;49.730;8.614;2022-11-15T02:07:06;14.80;57.10
27114;DHT22;14648;49.730;8.614;2022-11-15T02:09:36;14.80;57.00
27114;DHT22;14648;49.730;8.614;2022-11-15T02:12:02;14.80;57.00
27114;DHT22;14648;49.730;8.614;2022-11-15T02:14:28;14.80;56.80
27114;DHT22;14648;49.730;8.614;2022-11-15T02:19:53;14.80;56.40
27114;DHT22;14648;49.730;8.614;2022-11-15T02:28:58;14.80;55.90
27114;DHT22;14648;49.730;8.614;2022-11-15T02:32:05;14.80;55.90
27114;DHT22;14648;49.730;8.614;2022-11-15T02:37:55;14.70;55.90
27114;DHT22;14648;49.730;8.614;2022-11-15T02:40:53;14.60;55.60
27114;DHT22;14648;49.730;8.614;2022-11-15T02:43:36;14.60;55.50
27114;DHT22;14648;49.730;8.614;2022-11-15T02:46:47;14.60;55.40
27114;DHT22;14648;49.730;8.614;2022-11-15T02:49:34;14.60;55.40
27114;DHT22;14648;49.730;8.614;2022-11-15T02:52:00;14.50;55.40
27114;DHT22;14648;49.730;8.614;2022-11-15T02:54:30;14.50;55.40
27114;DHT22;14648;49.730;8.614;2022-11-15T02:57:12;14.50;55.40
27114;DHT22;14648;49.730;8.614;2022-11-15T03:00:04;14.50;55.30
27114;DHT22;14648;49.730;8.614;2022-11-15T03:05:51;14.40;55.20
27114;DHT22;14648;49.730;8.614;2022-11-15T03:11:15;14.50;55.30
27114;DHT22;14648;49.730;8.614;2022-11-15T03:16:36;14.40;55.30
27114;DHT22;14648;49.730;8.614;2022-11-15T03:19:26;14.40;55.30
27114;DHT22;14648;49.730;8.614;2022-11-15T03:21:59;14.40;55.40
27114;DHT22;14648;49.730;8.614;2022-11-15T03:24:28;14.40;55.50
27114;DHT22;14648;49.730;8.614;2022-11-15T03:26:57;14.40;55.60
27114;DHT22;14648;49.730;8.614;2022-11-15T03:29:27;14.30;55.70
27114;DHT22;14648;49.730;8.614;2022-11-15T03:32:02;14.40;55.80
27114;DHT22;14648;49.730;8.614;2022-11-15T03:34:53;14.30;55.90
27114;DHT22;14648;49.730;8.614;2022-11-15T03:40:33;14.30;55.90
27114;DHT22;14648;49.730;8.614;2022-11-15T03:43:15;14.30;56.00
27114;DHT22;14648;49.730;8.614;2022-11-15T03:46:10;14.20;56.00
27114;DHT22;14648;49.730;8.614;2022-11-15T03:48:43;14.20;56.20
27114;DHT22;14648;49.730;8.614;2022-11-15T03:51:13;14.20;56.30
27114;DHT22;14648;49.730;8.614;2022-11-15T03:53:40;14.10;56.50
27114;DHT22;14648;49.730;8.614;2022-11-15T03:56:06;14.00;56.50
27114;DHT22;14648;49.730;8.614;2022-11-15T03:58:32;14.00;56.60
27114;DHT22;14648;49.730;8.614;2022-11-15T04:00:57;14.00;57.50
27114;DHT22;14648;49.730;8.614;2022-11-15T04:03:25;13.90;56.90
27114;DHT22;14648;49.730;8.614;2022-11-15T04:05:51;13.90;57.00
27114;DHT22;14648;49.730;8.614;2022-11-15T04:08:16;13.90;57.10
27114;DHT22;14648;49.730;8.614;2022-11-15T04:10:43;13.90;57.20
27114;DHT22;14648;49.730;8.614;2022-11-15T04:13:08;13.80;57.20
27114;DHT22;14648;49.730;8.614;2022-11-15T04:15:34;13.80;57.10
27114;DHT22;14648;49.730;8.614;2022-11-15T04:18:00;13.80;57.00
27114;DHT22;14648;49.730;8.614;2022-11-15T04:20:29;13.80;56.90
27114;DHT22;14648;49.730;8.614;2022-11-15T04:23:15;13.90;56.90
27114;DHT22;14648;49.730;8.614;2022-11-15T04:26:09;14.00;56.70
27114;DHT22;14648;49.730;8.614;2022-11-15T04:28:37;14.00;56.50
27114;DHT22;14648;49.730;8.614;2022-11-15T04:31:26;14.10;56.50
27114;DHT22;14648;49.730;8.614;2022-11-15T04:33:52;14.10;56.50
27114;DHT22;14648;49.730;8.614;2022-11-15T04:36:19;14.10;57.10
27114;DHT22;14648;49.730;8.614;2022-11-15T04:39:03;14.10;56.40
27114;DHT22;14648;49.730;8.614;2022-11-15T04:41:29;14.10;56.40
27114;DHT22;14648;49.730;8.614;2022-11-15T04:43:55;14.10;56.40
27114;DHT22;14648;49.730;8.614;2022-11-15T04:46:22;14.10;56.50
27114;DHT22;14648;49.730;8.614;2022-11-15T04:48:49;14.10;56.60
27114;DHT22;14648;49.730;8.614;2022-11-15T04:51:15;14.10;56.80
27114;DHT22;14648;49.730;8.614;2022-11-15T04:53:41;14.10;57.00
27114;DHT22;14648;49.730;8.614;2022-11-15T04:56:07;14.10;57.10
27114;DHT22;14648;49.730;8.614;2022-11-15T04:58:33;14.00;57.20
27114;DHT22;14648;49.730;8.614;2022-11-15T05:01:06;14.00;58.10
27114;DHT22;14648;49.730;8.614;2022-11-15T05:03:33;14.00;57.50
27114;DHT22;14648;49.730;8.614;2022-11-15T05:06:17;14.00;57.50
27114;DHT22;14648;49.730;8.614;2022-11-15T05:08:42;14.00;57.50
27114;DHT22;14648;49.730;8.614;2022-11-15T05:11:08;14.00;57.70
27114;DHT22;14648;49.730;8.614;2022-11-15T05:13:34;14.00;57.80
27114;DHT22;14648;49.730;8.614;2022-11-15T05:15:59;14.00;57.90
27114;DHT22;14648;49.730;8.614;2022-11-15T05:18:25;13.90;58.10
27114;DHT22;14648;49.730;8.614;2022-11-15T05:20:51;13.90;58.20
27114;DHT22;14648;49.730;8.614;2022-11-15T05:23:16;13.90;58.40
27114;DHT22;14648;49.730;8.614;2022-11-15T05:25:42;13.90;58.40
27114;DHT22;14648;49.730;8.614;2022-11-15T05:28:07;13.90;58.60
27114;DHT22;14648;49.730;8.614;2022-11-15T05:30:33;13.90;58.60
27114;DHT22;14648;49.730;8.614;2022-11-15T05:33:00;13.90;58.80
27114;DHT22;14648;49.730;8.614;2022-11-15T05:35:31;13.90;58.70
27114;DHT22;14648;49.730;8.614;2022-11-15T05:38:00;13.90;58.90
27114;DHT22;14648;49.730;8.614;2022-11-15T05:40:26;13.90;58.90
27114;DHT22;14648;49.730;8.614;2022-11-15T05:42:53;13.90;59.00
27114;DHT22;14648;49.730;8.614;2022-11-15T05:45:19;13.90;59.10
27114;DHT22;14648;49.730;8.614;2022-11-15T05:47:44;13.80;59.30
27114;DHT22;14648;49.730;8.614;2022-11-15T05:50:15;13.80;59.40
27114;DHT22;14648;49.730;8.614;2022-11-15T05:52:42;13.70;59.60
27114;DHT22;14648;49.730;8.614;2022-11-15T05:55:08;13.80;59.70
27114;DHT22;14648;49.730;8.614;2022-11-15T05:57:34;13.70;59.80
27114;DHT22;14648;49.730;8.614;2022-11-15T06:00:00;13.70;60.00
27114;DHT22;14648;49.730;8.614;2022-11-15T06:02:26;13.60;60.10
27114;DHT22;14648;49.730;8.614;2022-11-15T06:04:52;13.60;60.20
27114;DHT22;14648;49.730;8.614;2022-11-15T06:07:18;13.50;60.40
27114;DHT22;14648;49.730;8.614;2022-11-15T06:09:43;13.50;60.50
27114;DHT22;14648;49.730;8.614;2022-11-15T06:12:09;13.50;60.70
27114;DHT22;14648;49.730;8.614;2022-11-15T06:14:34;13.50;60.90
27114;DHT22;14648;49.730;8.614;2022-11-15T06:17:00;13.50;60.90
27114;DHT22;14648;49.730;8.614;2022-11-15T06:19:26;13.50;60.90
27114;DHT22;14648;49.730;8.614;2022-11-15T06:21:51;13.40;60.80
27114;DHT22;14648;49.730;8.614;2022-11-15T06:24:17;13.40;60.90
27114;DHT22;14648;49.730;8.614;2022-11-15T06:26:42;13.40;61.00
27114;DHT22;14648;49.730;8.614;2022-11-15T06:29:08;13.40;61.00
27114;DHT22;14648;49.730;8.614;2022-11-15T06:31:34;13.40;61.10
27114;DHT22;14648;49.730;8.614;2022-11-15T06:34:00;13.30;61.20
27114;DHT22;14648;49.730;8.614;2022-11-15T06:36:26;13.30;61.40
27114;DHT22;14648;49.730;8.614;2022-11-15T06:38:51;13.30;61.50
27114;DHT22;14648;49.730;8.614;2022-11-15T06:41:17;13.30;61.60
27114;DHT22;14648;49.730;8.614;2022-11-15T06:43:43;13.20;61.60
27114;DHT22;14648;49.730;8.614;2022-11-15T06:46:09;13.20;61.70
27114;DHT22;14648;49.730;8.614;2022-11-15T06:48:35;13.20;61.80
27114;DHT22;14648;49.730;8.614;2022-11-15T06:51:03;13.10;61.80
27114;DHT22;14648;49.730;8.614;2022-11-15T06:53:30;13.10;61.90
27114;DHT22;14648;49.730;8.614;2022-11-15T06:56:00;13.10;62.00
27114;DHT22;14648;49.730;8.614;2022-11-15T06:58:27;13.00;62.10
27114;DHT22;14648;49.730;8.614;2022-11-15T07:00:53;13.00;62.10
27114;DHT22;14648;49.730;8.614;2022-11-15T07:03:23;13.00;62.20
27114;DHT22;14648;49.730;8.614;2022-11-15T07:05:53;13.00;62.30
27114;DHT22;14648;49.730;8.614;2022-11-15T07:08:20;13.00;62.50
27114;DHT22;14648;49.730;8.614;2022-11-15T07:10:47;13.00;62.50
27114;DHT22;14648;49.730;8.614;2022-11-15T07:13:12;12.90;62.70
27114;DHT22;14648;49.730;8.614;2022-11-15T07:15:38;12.90;62.80
27114;DHT22;14648;49.730;8.614;2022-11-15T07:18:03;13.00;62.80
27114;DHT22;14648;49.730;8.614;2022-11-15T07:20:29;12.90;62.80
27114;DHT22;14648;49.730;8.614;2022-11-15T07:23:02;13.00;62.90
27114;DHT22;14648;49.730;8.614;2022-11-15T07:25:30;13.00;63.00
27114;DHT22;14648;49.730;8.614;2022-11-15T07:27:57;13.00;62.90
27114;DHT22;14648;49.730;8.614;2022-11-15T07:30:24;13.00;62.80
27114;DHT22;14648;49.730;8.614;2022-11-15T07:32:57;13.00;62.80
27114;DHT22;14648;49.730;8.614;2022-11-15T07:35:25;13.00;62.80
27114;DHT22;14648;49.730;8.614;2022-11-15T07:37:59;13.00;62.60
27114;DHT22;14648;49.730;8.614;2022-11-15T07:40:27;13.10;62.50
27114;DHT22;14648;49.730;8.614;2022-11-15T07:43:06;13.10;62.30
27114;DHT22;14648;49.730;8.614;2022-11-15T07:45:33;13.10;62.20
27114;DHT22;14648;49.730;8.614;2022-11-15T07:48:00;13.10;62.00
27114;DHT22;14648;49.730;8.614;2022-11-15T07:50:26;13.20;62.00
27114;DHT22;14648;49.730;8.614;2022-11-15T07:52:57;13.20;62.00
27114;DHT22;14648;49.730;8.614;2022-11-15T07:55:25;13.20;62.00
27114;DHT22;14648;49.730;8.614;2022-11-15T07:57:52;13.20;62.10
27114;DHT22;14648;49.730;8.614;2022-11-15T08:00:19;13.20;62.10
27114;DHT22;14648;49.730;8.614;2022-11-15T08:02:45;13.20;62.10
27114;DHT22;14648;49.730;8.614;2022-11-15T08:05:11;13.20;62.10
27114;DHT22;14648;49.730;8.614;2022-11-15T08:07:36;13.30;62.20
27114;DHT22;14648;49.730;8.614;2022-11-15T08:10:04;13.30;62.10
27114;DHT22;14648;49.730;8.614;2022-11-15T08:12:31;13.40;62.10
27114;DHT22;14648;49.730;8.614;2022-11-15T08:14:57;13.40;62.10
27114;DHT22;14648;49.730;8.614;2022-11-15T08:17:24;13.40;62.20
27114;DHT22;14648;49.730;8.614;2022-11-15T08:19:50;13.40;62.10
27114;DHT22;14648;49.730;8.614;2022-11-15T08:22:16;13.40;62.20
27114;DHT22;14648;49.730;8.614;2022-11-15T08:24:42;13.40;62.30
27114;DHT22;14648;49.730;8.614;2022-11-15T08:27:08;13.40;62.40
27114;DHT22;14648;49.730;8.614;2022-11-15T08:29:43;13.40;62.40
27114;DHT22;14648;49.730;8.614;2022-11-15T08:32:10;13.40;62.50
27114;DHT22;14648;49.730;8.614;2022-11-15T08:34:37;13.40;62.60
27114;DHT22;14648;49.730;8.614;2022-11-15T08:37:04;13.40;62.60
27114;DHT22;14648;49.730;8.614;2022-11-15T08:39:30;13.40;62.80
27114;DHT22;14648;49.730;8.614;2022-11-15T08:41:55;13.40;62.80
27114;DHT22;14648;49.730;8.614;2022-11-15T08:44:21;13.40;62.20
27114;DHT22;14648;49.730;8.614;2022-11-15T08:46:47;13.40;62.90
27114;DHT22;14648;49.730;8.614;2022-11-15T08:49:13;13.40;62.90
27114;DHT22;14648;49.730;8.614;2022-11-15T08:51:39;13.40;62.90
27114;DHT22;14648;49.730;8.614;2022-11-15T08:54:04;13.30;62.90
27114;DHT22;14648;49.730;8.614;2022-11-15T08:56:30;13.30;63.10
27114;DHT22;14648;49.730;8.614;2022-11-15T08:58:56;13.30;63.20
27114;DHT22;14648;49.730;8.614;2022-11-15T09:01:23;13.20;63.20
27114;DHT22;14648;49.730;8.614;2022-11-15T09:03:48;13.20;63.40
27114;DHT22;14648;49.730;8.614;2022-11-15T09:06:14;13.20;63.50
27114;DHT22;14648;49.730;8.614;2022-11-15T09:08:41;13.20;63.70
27114;DHT22;14648;49.730;8.614;2022-11-15T09:11:09;13.20;63.90
27114;DHT22;14648;49.730;8.614;2022-11-15T09:13:36;13.30;64.10
27114;DHT22;14648;49.730;8.614;2022-11-15T09:16:03;13.30;64.20
27114;DHT22;14648;49.730;8.614;2022-11-15T09:18:29;13.30;64.30
27114;DHT22;14648;49.730;8.614;2022-11-15T09:20:59;13.30;64.50
27114;DHT22;14648;49.730;8.614;2022-11-15T09:23:26;13.40;64.70
27114;DHT22;14648;49.730;8.614;2022-11-15T09:25:57;13.40;64.70
27114;DHT22;14648;49.730;8.614;2022-11-15T09:28:27;13.40;64.80
27114;DHT22;14648;49.730;8.614;2022-11-15T09:30:59;13.40;65.00
27114;DHT22;14648;49.730;8.614;2022-11-15T09:33:26;13.40;65.20
27114;DHT22;14648;49.730;8.614;2022-11-15T09:35:52;13.40;65.20
27114;DHT22;14648;49.730;8.614;2022-11-15T09:38:19;13.40;65.30
27114;DHT22;14648;49.730;8.614;2022-11-15T09:40:51;13.50;65.60
27114;DHT22;14648;49.730;8.614;2022-11-15T09:49:29;13.50;66.30
27114;DHT22;14648;49.730;8.614;2022-11-15T09:51:55;13.60;66.10
27114;DHT22;14648;49.730;8.614;2022-11-15T09:54:35;13.50;66.10
27114;DHT22;14648;49.730;8.614;2022-11-15T09:57:13;13.50;66.30
27114;DHT22;14648;49.730;8.614;2022-11-15T10:03:07;13.60;66.50
27114;DHT22;14648;49.730;8.614;2022-11-15T10:05:46;13.70;66.60
27114;DHT22;14648;49.730;8.614;2022-11-15T10:08:33;13.70;66.60
27114;DHT22;14648;49.730;8.614;2022-11-15T10:11:11;13.80;66.70
27114;DHT22;14648;49.730;8.614;2022-11-15T10:13:46;13.80;66.70
27114;DHT22;14648;49.730;8.614;2022-11-15T10:19:39;13.90;66.90
27114;DHT22;14648;49.730;8.614;2022-11-15T10:22:32;13.90;66.90
27114;DHT22;14648;49.730;8.614;2022-11-15T10:25:19;13.90;67.00
27114;DHT22;14648;49.730;8.614;2022-11-15T10:27:55;14.00;66.90
27114;DHT22;14648;49.730;8.614;2022-11-15T10:30:23;14.00;66.90
27114;DHT22;14648;49.730;8.614;2022-11-15T10:33:44;14.00;66.90
27114;DHT22;14648;49.730;8.614;2022-11-15T10:41:15;14.10;67.80
27114;DHT22;14648;49.730;8.614;2022-11-15T10:46:38;14.20;66.80
27114;DHT22;14648;49.730;8.614;2022-11-15T10:51:53;14.20;67.00
27114;DHT22;14648;49.730;8.614;2022-11-15T10:57:12;14.20;67.00
27114;DHT22;14648;49.730;8.614;2022-11-15T10:59:45;14.20;66.90
27114;DHT22;14648;49.730;8.614;2022-11-15T11:04:59;14.20;67.00
27114;DHT22;14648;49.730;8.614;2022-11-15T11:07:31;14.20;67.00
27114;DHT22;14648;49.730;8.614;2022-11-15T11:10:03;14.30;67.10
27114;DHT22;14648;49.730;8.614;2022-11-15T11:12:44;14.40;67.10
27114;DHT22;14648;49.730;8.614;2022-11-15T11:15:14;14.40;66.90
27114;DHT22;14648;49.730;8.614;2022-11-15T11:18:00;14.50;67.00
27114;DHT22;14648;49.730;8.614;2022-11-15T11:23:37;14.60;66.50
27114;DHT22;14648;49.730;8.614;2022-11-15T11:26:40;14.70;66.40
27114;DHT22;14648;49.730;8.614;2022-11-15T11:29:59;14.70;66.10
27114;DHT22;14648;49.730;8.614;2022-11-15T11:32:49;14.70;65.70
27114;DHT22;14648;49.730;8.614;2022-11-15T11:38:29;14.80;65.40
27114;DHT22;14648;49.730;8.614;2022-11-15T11:41:12;14.90;65.40
27114;DHT22;14648;49.730;8.614;2022-11-15T11:43:51;14.90;65.10
27114;DHT22;14648;49.730;8.614;2022-11-15T11:49:09;15.00;64.70
27114;DHT22;14648;49.730;8.614;2022-11-15T11:51:47;15.00;64.70
27114;DHT22;14648;49.730;8.614;2022-11-15T11:57:40;15.10;64.30
27114;DHT22;14648;49.730;8.614;2022-11-15T12:00:22;15.10;64.30
27114;DHT22;14648;49.730;8.614;2022-11-15T12:03:14;15.10;64.00
27114;DHT22;14648;49.730;8.614;2022-11-15T12:05:54;15.10;64.00
27114;DHT22;14648;49.730;8.614;2022-11-15T12:11:54;15.20;63.70
27114;DHT22;14648;49.730;8.614;2022-11-15T12:14:40;15.30;63.70
27114;DHT22;14648;49.730;8.614;2022-11-15T12:17:13;15.40;63.60
27114;DHT22;14648;49.730;8.614;2022-11-15T12:19:40;15.40;63.30
27114;DHT22;14648;49.730;8.614;2022-11-15T12:22:17;15.40;63.00
27114;DHT22;14648;49.730;8.614;2022-11-15T12:24:55;15.40;62.80
27114;DHT22;14648;49.730;8.614;2022-11-15T12:30:08;15.30;62.60
27114;DHT22;14648;49.730;8.614;2022-11-15T12:32:38;15.30;62.50
27114;DHT22;14648;49.730;8.614;2022-11-15T12:35:26;15.30;62.80
27114;DHT22;14648;49.730;8.614;2022-11-15T12:38:03;15.30;62.30
27114;DHT22;14648;49.730;8.614;2022-11-15T12:40:31;15.40;62.30
27114;DHT22;14648;49.730;8.614;2022-11-15T12:43:01;15.30;62.20
27114;DHT22;14648;49.730;8.614;2022-11-15T12:45:42;15.30;62.00
27114;DHT22;14648;49.730;8.614;2022-11-15T12:58:46;15.30;61.90
27114;DHT22;14648;49.730;8.614;2022-11-15T13:04:23;15.20;61.80
27114;DHT22;14648;49.730;8.614;2022-11-15T13:06:56;15.20;61.90
27114;DHT22;14648;49.730;8.614;2022-11-15T13:12:07;15.20;61.90
27114;DHT22;14648;49.730;8.614;2022-11-15T13:15:30;15.30;61.90
27114;DHT22;14648;49.730;8.614;2022-11-15T13:18:26;15.20;61.90
27114;DHT22;14648;49.730;8.614;2022-11-15T13:21:03;15.20;62.00
27114;DHT22;14648;49.730;8.614;2022-11-15T13:23:54;15.10;62.10
27114;DHT22;14648;49.730;8.614;2022-11-15T13:26:21;15.20;62.20
27114;DHT22;14648;49.730;8.614;2022-11-15T13:28:49;15.20;62.20
27114;DHT22;14648;49.730;8.614;2022-11-15T13:31:37;15.20;62.40
27114;DHT22;14648;49.730;8.614;2022-11-15T13:34:31;15.20;62.40
27114;DHT22;14648;49.730;8.614;2022-11-15T13:40:19;15.20;62.20
27114;DHT22;14648;49.730;8.614;2022-11-15T13:49:00;15.10;62.10
27114;DHT22;14648;49.730;8.614;2022-11-15T13:51:50;15.10;62.10
27114;DHT22;14648;49.730;8.614;2022-11-15T13:57:46;15.20;62.20
27114;DHT22;14648;49.730;8.614;2022-11-15T14:00:41;15.20;62.20
27114;DHT22;14648;49.730;8.614;2022-11-15T14:03:40;15.20;62.10
27114;DHT22;14648;49.730;8.614;2022-11-15T14:06:32;15.20;62.00
27114;DHT22;14648;49.730;8.614;2022-11-15T14:12:31;15.20;62.00
27114;DHT22;14648;49.730;8.614;2022-11-15T14:15:29;15.20;61.80
27114;DHT22;14648;49.730;8.614;2022-11-15T14:18:49;15.20;61.80
27114;DHT22;14648;49.730;8.614;2022-11-15T14:21:36;15.20;61.70
27114;DHT22;14648;49.730;8.614;2022-11-15T14:24:30;15.20;61.70
27114;DHT22;14648;49.730;8.614;2022-11-15T14:27:25;15.20;61.50
27114;DHT22;14648;49.730;8.614;2022-11-15T14:30:15;15.20;61.50
27114;DHT22;14648;49.730;8.614;2022-11-15T14:36:21;15.10;61.40
27114;DHT22;14648;49.730;8.614;2022-11-15T14:39:07;15.10;61.40
27114;DHT22;14648;49.730;8.614;2022-11-15T14:41:53;15.10;61.50
27114;DHT22;14648;49.730;8.614;2022-11-15T14:44:39;15.10;61.60
27114;DHT22;14648;49.730;8.614;2022-11-15T14:47:25;15.10;61.60
27114;DHT22;14648;49.730;8.614;2022-11-15T14:50:17;15.00;61.60
27114;DHT22;14648;49.730;8.614;2022-11-15T14:53:05;15.00;61.60
27114;DHT22;14648;49.730;8.614;2022-11-15T14:55:51;15.00;61.70
27114;DHT22;14648;49.730;8.614;2022-11-15T14:58:37;15.00;61.80
27114;DHT22;14648;49.730;8.614;2022-11-15T15:01:25;15.00;61.90
27114;DHT22;14648;49.730;8.614;2022-11-15T15:04:11;14.90;61.80
27114;DHT22;14648;49.730;8.614;2022-11-15T15:06:57;14.90;61.60
27114;DHT22;14648;49.730;8.614;2022-11-15T15:09:44;15.00;61.30
27114;DHT22;14648;49.730;8.614;2022-11-15T15:12:31;15.00;61.20
27114;DHT22;14648;49.730;8.614;2022-11-15T15:15:31;15.00;61.00
27114;DHT22;14648;49.730;8.614;2022-11-15T15:18:19;15.00;60.70
27114;DHT22;14648;49.730;8.614;2022-11-15T15:21:20;15.10;60.70
27114;DHT22;14648;49.730;8.614;2022-11-15T15:24:14;15.10;60.60
27114;DHT22;14648;49.730;8.614;2022-11-15T15:27:00;15.10;60.50
27114;DHT22;14648;49.730;8.614;2022-11-15T15:29:46;15.00;60.30
27114;DHT22;14648;49.730;8.614;2022-11-15T15:32:33;15.10;60.30
27114;DHT22;14648;49.730;8.614;2022-11-15T15:35:20;15.10;61.00
27114;DHT22;14648;49.730;8.614;2022-11-15T15:38:12;15.00;60.00
27114;DHT22;14648;49.730;8.614;2022-11-15T15:40:58;15.00;59.80
27114;DHT22;14648;49.730;8.614;2022-11-15T15:43:45;15.10;59.70
27114;DHT22;14648;49.730;8.614;2022-11-15T15:46:31;15.10;59.40
27114;DHT22;14648;49.730;8.614;2022-11-15T15:49:17;15.20;59.30
27114;DHT22;14648;49.730;8.614;2022-11-15T15:52:03;15.20;59.10
27114;DHT22;14648;49.730;8.614;2022-11-15T15:54:49;15.20;59.70
27114;DHT22;14648;49.730;8.614;2022-11-15T15:57:35;15.20;59.00
27114;DHT22;14648;49.730;8.614;2022-11-15T16:00:22;15.20;58.80
27114;DHT22;14648;49.730;8.614;2022-11-15T16:03:10;15.20;58.40
27114;DHT22;14648;49.730;8.614;2022-11-15T16:05:56;15.30;58.30
27114;DHT22;14648;49.730;8.614;2022-11-15T16:08:42;15.20;58.20
27114;DHT22;14648;49.730;8.614;2022-11-15T16:11:28;15.30;58.10
27114;DHT22;14648;49.730;8.614;2022-11-15T16:14:14;15.30;57.90
27114;DHT22;14648;49.730;8.614;2022-11-15T16:16:59;15.30;57.80
27114;DHT22;14648;49.730;8.614;2022-11-15T16:19:45;15.30;57.60
27114;DHT22;14648;49.730;8.614;2022-11-15T16:22:31;15.30;57.40
27114;DHT22;14648;49.730;8.614;2022-11-15T16:25:17;15.30;57.30
27114;DHT22;14648;49.730;8.614;2022-11-15T16:28:03;15.30;57.20
27114;DHT22;14648;49.730;8.614;2022-11-15T16:31:17;15.30;57.10
27114;DHT22;14648;49.730;8.614;2022-11-15T16:34:05;15.40;56.90
27114;DHT22;14648;49.730;8.614;2022-11-15T16:36:52;15.30;57.00
27114;DHT22;14648;49.730;8.614;2022-11-15T16:39:39;15.30;56.90
27114;DHT22;14648;49.730;8.614;2022-11-15T16:42:25;15.30;56.90
27114;DHT22;14648;49.730;8.614;2022-11-15T16:45:11;15.30;56.80
27114;DHT22;14648;49.730;8.614;2022-11-15T16:47:59;15.30;56.70
27114;DHT22;14648;49.730;8.614;2022-11-15T16:50:45;15.30;56.70
27114;DHT22;14648;49.730;8.614;2022-11-15T16:53:31;15.30;56.60
27114;DHT22;14648;49.730;8.614;2022-11-15T16:56:21;15.30;56.50
27114;DHT22;14648;49.730;8.614;2022-11-15T17:05:01;15.30;56.50
27114;DHT22;14648;49.730;8.614;2022-11-15T17:07:48;15.20;56.40
27114;DHT22;14648;49.730;8.614;2022-11-15T17:10:33;15.20;56.30
27114;DHT22;14648;49.730;8.614;2022-11-15T17:13:17;15.30;56.40
27114;DHT22;14648;49.730;8.614;2022-11-15T17:15:43;15.30;56.40
27114;DHT22;14648;49.730;8.614;2022-11-15T17:18:12;15.30;56.20
27114;DHT22;14648;49.730;8.614;2022-11-15T17:20:40;15.30;56.00
27114;DHT22;14648;49.730;8.614;2022-11-15T17:23:12;15.30;56.00
27114;DHT22;14648;49.730;8.614;2022-11-15T17:25:39;15.30;55.90
27114;DHT22;14648;49.730;8.614;2022-11-15T17:28:05;15.40;55.90
27114;DHT22;14648;49.730;8.614;2022-11-15T17:30:31;15.30;55.90
27114;DHT22;14648;49.730;8.614;2022-11-15T17:32:59;15.30;56.00
27114;DHT22;14648;49.730;8.614;2022-11-15T17:35:25;15.30;56.00
27114;DHT22;14648;49.730;8.614;2022-11-15T17:37:51;15.30;55.90
27114;DHT22;14648;49.730;8.614;2022-11-15T17:40:17;15.30;56.60
27114;DHT22;14648;49.730;8.614;2022-11-15T17:42:44;15.30;56.10
27114;DHT22;14648;49.730;8.614;2022-11-15T17:45:10;15.30;56.40
27114;DHT22;14648;49.730;8.614;2022-11-15T17:47:36;15.20;56.60
27114;DHT22;14648;49.730;8.614;2022-11-15T17:50:02;15.10;56.90
27114;DHT22;14648;49.730;8.614;2022-11-15T17:52:28;15.10;57.10
27114;DHT22;14648;49.730;8.614;2022-11-15T17:54:54;15.00;57.30
27114;DHT22;14648;49.730;8.614;2022-11-15T17:57:20;14.90;57.40
27114;DHT22;14648;49.730;8.614;2022-11-15T17:59:45;14.90;57.60
27114;DHT22;14648;49.730;8.614;2022-11-15T18:02:13;14.80;57.80
27114;DHT22;14648;49.730;8.614;2022-11-15T18:04:38;14.80;57.90
27114;DHT22;14648;49.730;8.614;2022-11-15T18:07:04;14.70;58.00
27114;DHT22;14648;49.730;8.614;2022-11-15T18:09:30;14.70;58.20